sensor_id;sensor_type;location;lat;lon;timestamp;P1;durP1;ratioP1;P2;durP2;ratioP2
73474;SDS011;61711;52.266;10.542;2023-07-29T00:01:22;6.80;;;5.93;;
73474;SDS011;61711;52.266;10.542;2023-07-29T00:03:48;6.43;;;5.78;;
73474;SDS011;61711;52.266;10.542;2023-07-29T00:06:14;8.70;;;5.72;;
73474;SDS011;61711;52.266;10.542;2023-07-29T00:08:40;5.90;;;5.10;;
73474;SDS011;61711;52.266;10.542;2023-07-29T00:11:06;5.78;;;5.18;;
73474;SDS011;61711;52.266;10.542;2023-07-29T00:13:32;6.07;;;4.88;;
73474;SDS011;61711;52.266;10.542;2023-07-29T00:15:58;5.10;;;4.60;;
73474;SDS011;61711;52.266;10.542;2023-07-29T00:18:24;5.18;;;4.65;;
73474;SDS011;61711;52.266;10.542;2023-07-29T00:20:50;6.43;;;4.63;;
73474;SDS011;61711;52.266;10.542;2023-07-29T00:23:17;5.47;;;4.65;;
73474;SDS011;61711;52.266;10.542;2023-07-29T00:25:46;6.90;;;4.20;;
73474;SDS011;61711;52.266;10.542;2023-07-29T00:28:12;7.25;;;4.30;;
73474;SDS011;61711;52.266;10.542;2023-07-29T00:30:38;4.88;;;4.25;;
73474;SDS011;61711;52.266;10.542;2023-07-29T00:33:04;4.60;;;4.15;;
73474;SDS011;61711;52.266;10.542;2023-07-29T00:35:30;3.97;;;3.60;;
73474;SDS011;61711;52.266;10.542;2023-07-29T00:37:56;4.32;;;3.92;;
73474;SDS011;61711;52.266;10.542;2023-07-29T00:40:22;5.82;;;4.10;;
73474;SDS011;61711;52.266;10.542;2023-07-29T00:42:49;4.32;;;3.92;;
73474;SDS011;61711;52.266;10.542;2023-07-29T00:45:15;5.47;;;3.90;;
73474;SDS011;61711;52.266;10.542;2023-07-29T00:47:42;4.78;;;4.07;;
73474;SDS011;61711;52.266;10.542;2023-07-29T00:50:09;5.10;;;4.10;;
73474;SDS011;61711;52.266;10.542;2023-07-29T00:52:35;4.80;;;4.30;;
73474;SDS011;61711;52.266;10.542;2023-07-29T00:55:01;4.78;;;3.92;;
73474;SDS011;61711;52.266;10.542;2023-07-29T00:57:27;5.00;;;4.20;;
73474;SDS011;61711;52.266;10.542;2023-07-29T00:59:54;5.88;;;4.28;;
73474;SDS011;61711;52.266;10.542;2023-07-29T01:02:21;5.22;;;4.20;;
73474;SDS011;61711;52.266;10.542;2023-07-29T01:04:53;5.63;;;4.38;;
73474;SDS011;61711;52.266;10.542;2023-07-29T01:10:00;5.40;;;4.47;;
73474;SDS011;61711;52.266;10.542;2023-07-29T01:12:42;6.38;;;4.35;;
73474;SDS011;61711;52.266;10.542;2023-07-29T01:15:18;5.15;;;3.97;;
73474;SDS011;61711;52.266;10.542;2023-07-29T01:20:46;5.50;;;4.25;;
73474;SDS011;61711;52.266;10.542;2023-07-29T01:23:13;5.25;;;4.10;;
73474;SDS011;61711;52.266;10.542;2023-07-29T01:25:39;5.95;;;3.67;;
73474;SDS011;61711;52.266;10.542;2023-07-29T01:28:05;5.35;;;3.90;;
73474;SDS011;61711;52.266;10.542;2023-07-29T01:30:33;4.80;;;3.80;;
73474;SDS011;61711;52.266;10.542;2023-07-29T01:33:06;6.45;;;3.75;;
73474;SDS011;61711;52.266;10.542;2023-07-29T01:35:42;4.57;;;3.33;;
73474;SDS011;61711;52.266;10.542;2023-07-29T01:38:09;3.92;;;3.53;;
73474;SDS011;61711;52.266;10.542;2023-07-29T01:40:37;3.42;;;2.97;;
73474;SDS011;61711;52.266;10.542;2023-07-29T01:43:04;4.65;;;3.30;;
73474;SDS011;61711;52.266;10.542;2023-07-29T01:45:32;4.55;;;3.40;;
73474;SDS011;61711;52.266;10.542;2023-07-29T01:48:02;3.50;;;3.00;;
73474;SDS011;61711;52.266;10.542;2023-07-29T01:50:29;5.55;;;3.20;;
73474;SDS011;61711;52.266;10.542;2023-07-29T01:52:56;5.40;;;3.17;;
73474;SDS011;61711;52.266;10.542;2023-07-29T01:55:22;3.05;;;2.75;;
73474;SDS011;61711;52.266;10.542;2023-07-29T01:57:48;4.13;;;3.30;;
73474;SDS011;61711;52.266;10.542;2023-07-29T02:00:16;4.55;;;3.17;;
73474;SDS011;61711;52.266;10.542;2023-07-29T02:02:42;4.65;;;2.95;;
73474;SDS011;61711;52.266;10.542;2023-07-29T02:05:08;3.20;;;2.90;;
73474;SDS011;61711;52.266;10.542;2023-07-29T02:07:34;4.28;;;2.90;;
73474;SDS011;61711;52.266;10.542;2023-07-29T02:10:00;3.97;;;2.63;;
73474;SDS011;61711;52.266;10.542;2023-07-29T02:12:26;4.22;;;2.83;;
73474;SDS011;61711;52.266;10.542;2023-07-29T02:14:52;3.78;;;2.60;;
73474;SDS011;61711;52.266;10.542;2023-07-29T02:17:18;4.68;;;3.10;;
73474;SDS011;61711;52.266;10.542;2023-07-29T02:19:44;3.38;;;2.80;;
73474;SDS011;61711;52.266;10.542;2023-07-29T02:22:12;3.15;;;2.85;;
73474;SDS011;61711;52.266;10.542;2023-07-29T02:24:39;2.97;;;2.67;;
73474;SDS011;61711;52.266;10.542;2023-07-29T02:27:05;21.30;;;11.98;;
73474;SDS011;61711;52.266;10.542;2023-07-29T02:29:31;5.85;;;3.75;;
73474;SDS011;61711;52.266;10.542;2023-07-29T02:31:58;5.22;;;3.00;;
73474;SDS011;61711;52.266;10.542;2023-07-29T02:34:24;3.97;;;3.00;;
73474;SDS011;61711;52.266;10.542;2023-07-29T02:36:50;4.15;;;2.83;;
73474;SDS011;61711;52.266;10.542;2023-07-29T02:39:16;3.35;;;2.70;;
73474;SDS011;61711;52.266;10.542;2023-07-29T02:41:42;4.35;;;2.83;;
73474;SDS011;61711;52.266;10.542;2023-07-29T02:44:08;4.78;;;2.97;;
73474;SDS011;61711;52.266;10.542;2023-07-29T02:46:34;3.55;;;2.80;;
73474;SDS011;61711;52.266;10.542;2023-07-29T02:49:01;3.10;;;2.80;;
73474;SDS011;61711;52.266;10.542;2023-07-29T02:51:27;4.57;;;2.70;;
73474;SDS011;61711;52.266;10.542;2023-07-29T02:53:53;3.75;;;2.50;;
73474;SDS011;61711;52.266;10.542;2023-07-29T02:56:19;2.90;;;2.58;;
73474;SDS011;61711;52.266;10.542;2023-07-29T02:58:45;3.67;;;3.08;;
73474;SDS011;61711;52.266;10.542;2023-07-29T03:01:11;3.97;;;2.78;;
73474;SDS011;61711;52.266;10.542;2023-07-29T03:03:37;3.63;;;2.50;;
73474;SDS011;61711;52.266;10.542;2023-07-29T03:06:04;3.65;;;2.35;;
73474;SDS011;61711;52.266;10.542;2023-07-29T03:08:30;3.42;;;2.78;;
73474;SDS011;61711;52.266;10.542;2023-07-29T03:10:57;3.03;;;2.72;;
73474;SDS011;61711;52.266;10.542;2023-07-29T03:13:23;3.05;;;2.70;;
73474;SDS011;61711;52.266;10.542;2023-07-29T03:15:49;2.90;;;2.42;;
73474;SDS011;61711;52.266;10.542;2023-07-29T03:18:15;3.60;;;2.55;;
73474;SDS011;61711;52.266;10.542;2023-07-29T03:20:41;3.20;;;2.63;;
73474;SDS011;61711;52.266;10.542;2023-07-29T03:23:07;3.38;;;2.28;;
73474;SDS011;61711;52.266;10.542;2023-07-29T03:25:33;4.75;;;2.67;;
73474;SDS011;61711;52.266;10.542;2023-07-29T03:27:59;2.88;;;2.35;;
73474;SDS011;61711;52.266;10.542;2023-07-29T03:30:26;2.83;;;2.55;;
73474;SDS011;61711;52.266;10.542;2023-07-29T03:32:52;2.90;;;2.60;;
73474;SDS011;61711;52.266;10.542;2023-07-29T03:35:18;4.60;;;2.63;;
73474;SDS011;61711;52.266;10.542;2023-07-29T03:37:44;3.50;;;2.97;;
73474;SDS011;61711;52.266;10.542;2023-07-29T03:40:10;3.55;;;3.05;;
73474;SDS011;61711;52.266;10.542;2023-07-29T03:42:36;4.82;;;3.00;;
73474;SDS011;61711;52.266;10.542;2023-07-29T03:45:02;4.97;;;3.08;;
73474;SDS011;61711;52.266;10.542;2023-07-29T03:47:29;5.07;;;3.38;;
73474;SDS011;61711;52.266;10.542;2023-07-29T03:49:54;4.20;;;3.10;;
73474;SDS011;61711;52.266;10.542;2023-07-29T03:52:20;5.72;;;3.80;;
73474;SDS011;61711;52.266;10.542;2023-07-29T03:54:46;7.32;;;3.92;;
73474;SDS011;61711;52.266;10.542;2023-07-29T03:57:12;4.57;;;3.35;;
73474;SDS011;61711;52.266;10.542;2023-07-29T03:59:38;5.38;;;3.50;;
73474;SDS011;61711;52.266;10.542;2023-07-29T04:02:04;6.43;;;3.33;;
73474;SDS011;61711;52.266;10.542;2023-07-29T04:04:30;5.55;;;3.70;;
73474;SDS011;61711;52.266;10.542;2023-07-29T04:06:56;8.85;;;3.70;;
73474;SDS011;61711;52.266;10.542;2023-07-29T04:09:22;7.63;;;3.63;;
73474;SDS011;61711;52.266;10.542;2023-07-29T04:11:49;4.75;;;3.50;;
73474;SDS011;61711;52.266;10.542;2023-07-29T04:14:15;5.70;;;3.50;;
73474;SDS011;61711;52.266;10.542;2023-07-29T04:16:41;3.95;;;3.20;;
73474;SDS011;61711;52.266;10.542;2023-07-29T04:19:07;8.40;;;3.08;;
73474;SDS011;61711;52.266;10.542;2023-07-29T04:21:33;4.57;;;2.80;;
73474;SDS011;61711;52.266;10.542;2023-07-29T04:23:59;4.10;;;2.60;;
73474;SDS011;61711;52.266;10.542;2023-07-29T04:26:25;3.85;;;2.60;;
73474;SDS011;61711;52.266;10.542;2023-07-29T04:28:51;4.05;;;3.00;;
73474;SDS011;61711;52.266;10.542;2023-07-29T04:31:17;2.80;;;2.60;;
73474;SDS011;61711;52.266;10.542;2023-07-29T04:33:43;3.10;;;2.70;;
73474;SDS011;61711;52.266;10.542;2023-07-29T04:36:09;2.92;;;2.65;;
73474;SDS011;61711;52.266;10.542;2023-07-29T04:38:37;3.60;;;2.63;;
73474;SDS011;61711;52.266;10.542;2023-07-29T04:41:03;3.15;;;2.70;;
73474;SDS011;61711;52.266;10.542;2023-07-29T04:43:32;2.63;;;2.42;;
73474;SDS011;61711;52.266;10.542;2023-07-29T04:45:58;3.88;;;2.67;;
73474;SDS011;61711;52.266;10.542;2023-07-29T04:48:24;4.35;;;2.42;;
73474;SDS011;61711;52.266;10.542;2023-07-29T04:50:50;2.95;;;2.40;;
73474;SDS011;61711;52.266;10.542;2023-07-29T04:53:16;2.78;;;2.00;;
73474;SDS011;61711;52.266;10.542;2023-07-29T04:55:42;3.53;;;2.30;;
73474;SDS011;61711;52.266;10.542;2023-07-29T04:58:08;3.92;;;2.65;;
73474;SDS011;61711;52.266;10.542;2023-07-29T05:00:34;2.78;;;2.50;;
73474;SDS011;61711;52.266;10.542;2023-07-29T05:03:00;6.40;;;5.30;;
73474;SDS011;61711;52.266;10.542;2023-07-29T05:05:26;2.35;;;2.15;;
73474;SDS011;61711;52.266;10.542;2023-07-29T05:07:52;4.18;;;2.38;;
73474;SDS011;61711;52.266;10.542;2023-07-29T05:10:19;2.53;;;2.20;;
73474;SDS011;61711;52.266;10.542;2023-07-29T05:12:45;2.65;;;2.30;;
73474;SDS011;61711;52.266;10.542;2023-07-29T05:15:11;2.67;;;2.47;;
73474;SDS011;61711;52.266;10.542;2023-07-29T05:17:37;2.97;;;2.38;;
73474;SDS011;61711;52.266;10.542;2023-07-29T05:20:04;2.55;;;2.35;;
73474;SDS011;61711;52.266;10.542;2023-07-29T05:22:30;2.33;;;2.13;;
73474;SDS011;61711;52.266;10.542;2023-07-29T05:24:56;4.47;;;2.40;;
73474;SDS011;61711;52.266;10.542;2023-07-29T05:27:22;2.65;;;2.42;;
73474;SDS011;61711;52.266;10.542;2023-07-29T05:29:48;3.25;;;2.35;;
73474;SDS011;61711;52.266;10.542;2023-07-29T05:32:14;3.45;;;2.35;;
73474;SDS011;61711;52.266;10.542;2023-07-29T05:34:40;3.72;;;2.50;;
73474;SDS011;61711;52.266;10.542;2023-07-29T05:37:06;2.95;;;2.50;;
73474;SDS011;61711;52.266;10.542;2023-07-29T05:39:31;3.03;;;2.28;;
73474;SDS011;61711;52.266;10.542;2023-07-29T05:41:58;4.30;;;2.40;;
73474;SDS011;61711;52.266;10.542;2023-07-29T05:44:27;5.70;;;2.22;;
73474;SDS011;61711;52.266;10.542;2023-07-29T05:46:53;2.50;;;2.20;;
73474;SDS011;61711;52.266;10.542;2023-07-29T05:49:19;3.45;;;2.50;;
73474;SDS011;61711;52.266;10.542;2023-07-29T05:51:45;3.55;;;2.38;;
73474;SDS011;61711;52.266;10.542;2023-07-29T05:54:11;2.50;;;2.30;;
73474;SDS011;61711;52.266;10.542;2023-07-29T05:56:37;2.80;;;2.20;;
73474;SDS011;61711;52.266;10.542;2023-07-29T05:59:03;4.30;;;2.50;;
73474;SDS011;61711;52.266;10.542;2023-07-29T06:01:29;3.42;;;2.40;;
73474;SDS011;61711;52.266;10.542;2023-07-29T06:03:55;2.63;;;2.42;;
73474;SDS011;61711;52.266;10.542;2023-07-29T06:06:21;3.03;;;2.40;;
73474;SDS011;61711;52.266;10.542;2023-07-29T06:08:48;3.45;;;2.20;;
73474;SDS011;61711;52.266;10.542;2023-07-29T06:11:14;2.50;;;2.30;;
73474;SDS011;61711;52.266;10.542;2023-07-29T06:13:40;3.70;;;2.60;;
73474;SDS011;61711;52.266;10.542;2023-07-29T06:16:06;3.30;;;2.40;;
73474;SDS011;61711;52.266;10.542;2023-07-29T06:18:32;4.88;;;2.75;;
73474;SDS011;61711;52.266;10.542;2023-07-29T06:20:58;3.45;;;2.55;;
73474;SDS011;61711;52.266;10.542;2023-07-29T06:23:24;3.15;;;2.67;;
73474;SDS011;61711;52.266;10.542;2023-07-29T06:25:50;2.78;;;2.47;;
73474;SDS011;61711;52.266;10.542;2023-07-29T06:28:16;4.20;;;3.00;;
73474;SDS011;61711;52.266;10.542;2023-07-29T06:30:42;5.78;;;3.00;;
73474;SDS011;61711;52.266;10.542;2023-07-29T06:33:08;4.28;;;3.20;;
73474;SDS011;61711;52.266;10.542;2023-07-29T06:35:34;4.88;;;3.30;;
73474;SDS011;61711;52.266;10.542;2023-07-29T06:38:00;5.00;;;3.67;;
73474;SDS011;61711;52.266;10.542;2023-07-29T06:40:26;4.25;;;3.42;;
73474;SDS011;61711;52.266;10.542;2023-07-29T06:42:52;5.45;;;3.42;;
73474;SDS011;61711;52.266;10.542;2023-07-29T06:45:18;4.93;;;3.35;;
73474;SDS011;61711;52.266;10.542;2023-07-29T06:47:44;5.47;;;3.67;;
73474;SDS011;61711;52.266;10.542;2023-07-29T06:50:10;5.40;;;3.15;;
73474;SDS011;61711;52.266;10.542;2023-07-29T06:52:36;5.05;;;3.53;;
73474;SDS011;61711;52.266;10.542;2023-07-29T06:55:03;7.63;;;3.63;;
73474;SDS011;61711;52.266;10.542;2023-07-29T06:57:29;4.28;;;3.78;;
73474;SDS011;61711;52.266;10.542;2023-07-29T06:59:55;5.55;;;3.75;;
73474;SDS011;61711;52.266;10.542;2023-07-29T07:02:21;3.92;;;3.45;;
73474;SDS011;61711;52.266;10.542;2023-07-29T07:04:47;5.35;;;3.80;;
73474;SDS011;61711;52.266;10.542;2023-07-29T07:07:15;4.55;;;3.67;;
73474;SDS011;61711;52.266;10.542;2023-07-29T07:09:41;4.28;;;3.67;;
73474;SDS011;61711;52.266;10.542;2023-07-29T07:12:07;5.35;;;3.70;;
73474;SDS011;61711;52.266;10.542;2023-07-29T07:14:33;4.22;;;3.20;;
73474;SDS011;61711;52.266;10.542;2023-07-29T07:16:59;3.60;;;2.53;;
73474;SDS011;61711;52.266;10.542;2023-07-29T07:19:25;4.72;;;3.10;;
73474;SDS011;61711;52.266;10.542;2023-07-29T07:21:51;3.83;;;3.22;;
73474;SDS011;61711;52.266;10.542;2023-07-29T07:24:17;2.88;;;2.60;;
73474;SDS011;61711;52.266;10.542;2023-07-29T07:26:43;4.15;;;3.03;;
73474;SDS011;61711;52.266;10.542;2023-07-29T07:29:09;3.30;;;2.70;;
73474;SDS011;61711;52.266;10.542;2023-07-29T07:31:35;3.97;;;2.42;;
73474;SDS011;61711;52.266;10.542;2023-07-29T07:34:01;2.58;;;2.38;;
73474;SDS011;61711;52.266;10.542;2023-07-29T07:36:28;4.13;;;2.53;;
73474;SDS011;61711;52.266;10.542;2023-07-29T07:38:54;4.05;;;2.47;;
73474;SDS011;61711;52.266;10.542;2023-07-29T07:41:20;3.15;;;2.40;;
73474;SDS011;61711;52.266;10.542;2023-07-29T07:43:46;2.55;;;2.30;;
73474;SDS011;61711;52.266;10.542;2023-07-29T07:46:12;4.38;;;2.90;;
73474;SDS011;61711;52.266;10.542;2023-07-29T07:48:38;5.03;;;2.40;;
73474;SDS011;61711;52.266;10.542;2023-07-29T07:51:10;3.20;;;2.30;;
73474;SDS011;61711;52.266;10.542;2023-07-29T07:53:37;3.25;;;2.47;;
73474;SDS011;61711;52.266;10.542;2023-07-29T07:56:03;2.60;;;2.33;;
73474;SDS011;61711;52.266;10.542;2023-07-29T07:58:29;4.88;;;2.20;;
73474;SDS011;61711;52.266;10.542;2023-07-29T08:01:04;2.30;;;2.00;;
73474;SDS011;61711;52.266;10.542;2023-07-29T08:03:31;2.45;;;2.25;;
73474;SDS011;61711;52.266;10.542;2023-07-29T08:05:57;3.63;;;2.40;;
73474;SDS011;61711;52.266;10.542;2023-07-29T08:08:23;3.85;;;2.17;;
73474;SDS011;61711;52.266;10.542;2023-07-29T08:10:49;3.70;;;2.47;;
73474;SDS011;61711;52.266;10.542;2023-07-29T08:13:15;2.47;;;2.28;;
73474;SDS011;61711;52.266;10.542;2023-07-29T08:15:41;3.25;;;2.20;;
73474;SDS011;61711;52.266;10.542;2023-07-29T08:18:11;3.42;;;2.15;;
73474;SDS011;61711;52.266;10.542;2023-07-29T08:20:37;4.63;;;2.22;;
73474;SDS011;61711;52.266;10.542;2023-07-29T08:23:03;2.65;;;2.03;;
73474;SDS011;61711;52.266;10.542;2023-07-29T08:25:29;2.35;;;1.77;;
73474;SDS011;61711;52.266;10.542;2023-07-29T08:27:55;1.98;;;1.80;;
73474;SDS011;61711;52.266;10.542;2023-07-29T08:30:21;8.20;;;5.90;;
73474;SDS011;61711;52.266;10.542;2023-07-29T08:32:47;5.43;;;4.40;;
73474;SDS011;61711;52.266;10.542;2023-07-29T08:35:13;5.18;;;1.90;;
73474;SDS011;61711;52.266;10.542;2023-07-29T08:37:39;1.95;;;1.67;;
73474;SDS011;61711;52.266;10.542;2023-07-29T08:40:05;2.92;;;1.50;;
73474;SDS011;61711;52.266;10.542;2023-07-29T08:42:31;2.30;;;1.58;;
73474;SDS011;61711;52.266;10.542;2023-07-29T08:45:00;4.13;;;2.13;;
73474;SDS011;61711;52.266;10.542;2023-07-29T08:47:27;3.47;;;1.95;;
73474;SDS011;61711;52.266;10.542;2023-07-29T08:49:53;2.25;;;1.88;;
73474;SDS011;61711;52.266;10.542;2023-07-29T08:52:19;2.72;;;1.88;;
73474;SDS011;61711;52.266;10.542;2023-07-29T08:54:45;3.60;;;2.25;;
73474;SDS011;61711;52.266;10.542;2023-07-29T08:57:11;4.85;;;2.72;;
73474;SDS011;61711;52.266;10.542;2023-07-29T08:59:38;4.05;;;2.15;;
73474;SDS011;61711;52.266;10.542;2023-07-29T09:02:05;5.53;;;1.90;;
73474;SDS011;61711;52.266;10.542;2023-07-29T09:04:31;2.08;;;1.42;;
73474;SDS011;61711;52.266;10.542;2023-07-29T09:06:57;3.97;;;1.58;;
73474;SDS011;61711;52.266;10.542;2023-07-29T09:09:25;2.60;;;2.00;;
73474;SDS011;61711;52.266;10.542;2023-07-29T09:11:51;1.90;;;1.50;;
73474;SDS011;61711;52.266;10.542;2023-07-29T09:14:17;1.90;;;1.70;;
73474;SDS011;61711;52.266;10.542;2023-07-29T09:16:43;2.22;;;1.80;;
73474;SDS011;61711;52.266;10.542;2023-07-29T09:19:09;4.10;;;2.55;;
73474;SDS011;61711;52.266;10.542;2023-07-29T09:21:37;3.75;;;2.58;;
73474;SDS011;61711;52.266;10.542;2023-07-29T09:24:04;5.05;;;2.50;;
73474;SDS011;61711;52.266;10.542;2023-07-29T09:26:30;3.70;;;2.15;;
73474;SDS011;61711;52.266;10.542;2023-07-29T09:28:57;3.55;;;2.60;;
73474;SDS011;61711;52.266;10.542;2023-07-29T09:31:24;3.95;;;2.13;;
73474;SDS011;61711;52.266;10.542;2023-07-29T09:33:55;2.75;;;2.03;;
73474;SDS011;61711;52.266;10.542;2023-07-29T09:36:22;2.65;;;2.20;;
73474;SDS011;61711;52.266;10.542;2023-07-29T09:38:50;2.53;;;2.20;;
73474;SDS011;61711;52.266;10.542;2023-07-29T09:41:17;3.17;;;2.60;;
73474;SDS011;61711;52.266;10.542;2023-07-29T09:43:43;2.75;;;1.80;;
73474;SDS011;61711;52.266;10.542;2023-07-29T09:46:09;1.90;;;1.75;;
73474;SDS011;61711;52.266;10.542;2023-07-29T09:48:36;2.17;;;1.98;;
73474;SDS011;61711;52.266;10.542;2023-07-29T09:51:12;2.00;;;1.80;;
73474;SDS011;61711;52.266;10.542;2023-07-29T09:53:45;2.78;;;2.00;;
73474;SDS011;61711;52.266;10.542;2023-07-29T09:56:12;2.47;;;2.00;;
73474;SDS011;61711;52.266;10.542;2023-07-29T09:58:38;3.22;;;2.05;;
73474;SDS011;61711;52.266;10.542;2023-07-29T10:01:06;2.20;;;1.90;;
73474;SDS011;61711;52.266;10.542;2023-07-29T10:03:36;2.10;;;1.90;;
73474;SDS011;61711;52.266;10.542;2023-07-29T10:06:02;2.88;;;1.98;;
73474;SDS011;61711;52.266;10.542;2023-07-29T10:08:31;3.58;;;2.20;;
73474;SDS011;61711;52.266;10.542;2023-07-29T10:11:00;2.33;;;2.00;;
73474;SDS011;61711;52.266;10.542;2023-07-29T10:13:27;2.35;;;2.15;;
73474;SDS011;61711;52.266;10.542;2023-07-29T10:15:53;3.70;;;2.30;;
73474;SDS011;61711;52.266;10.542;2023-07-29T10:18:21;2.00;;;1.90;;
73474;SDS011;61711;52.266;10.542;2023-07-29T10:20:48;2.33;;;2.10;;
73474;SDS011;61711;52.266;10.542;2023-07-29T10:23:16;2.20;;;2.00;;
73474;SDS011;61711;52.266;10.542;2023-07-29T10:25:45;2.67;;;1.85;;
73474;SDS011;61711;52.266;10.542;2023-07-29T10:28:12;2.20;;;2.00;;
73474;SDS011;61711;52.266;10.542;2023-07-29T10:30:38;2.60;;;2.10;;
73474;SDS011;61711;52.266;10.542;2023-07-29T10:33:05;3.35;;;2.20;;
73474;SDS011;61711;52.266;10.542;2023-07-29T10:35:34;2.60;;;2.40;;
73474;SDS011;61711;52.266;10.542;2023-07-29T10:38:01;2.72;;;2.53;;
73474;SDS011;61711;52.266;10.542;2023-07-29T10:40:43;3.55;;;2.90;;
73474;SDS011;61711;52.266;10.542;2023-07-29T10:43:10;3.42;;;2.90;;
73474;SDS011;61711;52.266;10.542;2023-07-29T10:45:39;10.20;;;8.43;;
73474;SDS011;61711;52.266;10.542;2023-07-29T10:51:11;4.20;;;3.00;;
73474;SDS011;61711;52.266;10.542;2023-07-29T10:53:38;3.13;;;2.92;;
73474;SDS011;61711;52.266;10.542;2023-07-29T10:56:04;3.40;;;3.13;;
73474;SDS011;61711;52.266;10.542;2023-07-29T10:58:30;3.63;;;3.33;;
73474;SDS011;61711;52.266;10.542;2023-07-29T11:00:56;3.83;;;3.53;;
73474;SDS011;61711;52.266;10.542;2023-07-29T11:03:22;4.45;;;3.90;;
73474;SDS011;61711;52.266;10.542;2023-07-29T11:05:53;3.92;;;3.63;;
73474;SDS011;61711;52.266;10.542;2023-07-29T11:11:05;4.47;;;4.07;;
73474;SDS011;61711;52.266;10.542;2023-07-29T11:13:32;4.53;;;4.13;;
73474;SDS011;61711;52.266;10.542;2023-07-29T11:15:58;4.28;;;3.88;;
73474;SDS011;61711;52.266;10.542;2023-07-29T11:18:26;6.28;;;4.32;;
73474;SDS011;61711;52.266;10.542;2023-07-29T11:20:53;7.20;;;4.93;;
73474;SDS011;61711;52.266;10.542;2023-07-29T11:23:21;7.57;;;5.00;;
73474;SDS011;61711;52.266;10.542;2023-07-29T11:25:53;7.68;;;5.65;;
73474;SDS011;61711;52.266;10.542;2023-07-29T11:28:19;9.70;;;6.65;;
73474;SDS011;61711;52.266;10.542;2023-07-29T11:30:45;8.27;;;6.65;;
73474;SDS011;61711;52.266;10.542;2023-07-29T11:33:11;7.85;;;7.03;;
73474;SDS011;61711;52.266;10.542;2023-07-29T11:35:38;7.18;;;6.47;;
73474;SDS011;61711;52.266;10.542;2023-07-29T11:38:04;8.80;;;7.00;;
73474;SDS011;61711;52.266;10.542;2023-07-29T11:40:30;7.78;;;6.57;;
73474;SDS011;61711;52.266;10.542;2023-07-29T11:42:56;7.07;;;6.28;;
73474;SDS011;61711;52.266;10.542;2023-07-29T11:45:22;8.93;;;7.07;;
73474;SDS011;61711;52.266;10.542;2023-07-29T11:47:48;9.32;;;7.18;;
73474;SDS011;61711;52.266;10.542;2023-07-29T11:50:14;8.50;;;7.30;;
73474;SDS011;61711;52.266;10.542;2023-07-29T11:52:41;9.25;;;7.70;;
73474;SDS011;61711;52.266;10.542;2023-07-29T11:55:07;9.93;;;7.75;;
73474;SDS011;61711;52.266;10.542;2023-07-29T11:57:35;7.30;;;6.50;;
73474;SDS011;61711;52.266;10.542;2023-07-29T12:00:05;8.38;;;7.07;;
73474;SDS011;61711;52.266;10.542;2023-07-29T12:02:31;8.27;;;7.13;;
73474;SDS011;61711;52.266;10.542;2023-07-29T12:04:57;7.78;;;6.72;;
73474;SDS011;61711;52.266;10.542;2023-07-29T12:07:23;8.25;;;7.00;;
73474;SDS011;61711;52.266;10.542;2023-07-29T12:09:50;7.20;;;6.50;;
73474;SDS011;61711;52.266;10.542;2023-07-29T12:12:16;6.93;;;6.22;;
73474;SDS011;61711;52.266;10.542;2023-07-29T12:14:43;6.97;;;6.15;;
73474;SDS011;61711;52.266;10.542;2023-07-29T12:17:10;7.03;;;6.32;;
73474;SDS011;61711;52.266;10.542;2023-07-29T12:19:37;7.32;;;6.10;;
73474;SDS011;61711;52.266;10.542;2023-07-29T12:22:04;7.35;;;6.60;;
73474;SDS011;61711;52.266;10.542;2023-07-29T12:24:31;8.23;;;6.93;;
73474;SDS011;61711;52.266;10.542;2023-07-29T12:26:57;10.27;;;6.93;;
73474;SDS011;61711;52.266;10.542;2023-07-29T12:29:23;8.80;;;7.20;;
73474;SDS011;61711;52.266;10.542;2023-07-29T12:31:56;7.60;;;6.90;;
73474;SDS011;61711;52.266;10.542;2023-07-29T12:34:24;7.47;;;6.78;;
73474;SDS011;61711;52.266;10.542;2023-07-29T12:36:51;7.32;;;6.63;;
73474;SDS011;61711;52.266;10.542;2023-07-29T12:39:35;7.35;;;6.40;;
73474;SDS011;61711;52.266;10.542;2023-07-29T12:42:02;7.47;;;6.43;;
73474;SDS011;61711;52.266;10.542;2023-07-29T12:44:35;11.43;;;10.30;;
73474;SDS011;61711;52.266;10.542;2023-07-29T12:49:28;5.18;;;4.78;;
73474;SDS011;61711;52.266;10.542;2023-07-29T12:51:54;5.78;;;4.90;;
73474;SDS011;61711;52.266;10.542;2023-07-29T12:54:20;4.30;;;3.90;;
73474;SDS011;61711;52.266;10.542;2023-07-29T12:56:46;3.70;;;3.40;;
73474;SDS011;61711;52.266;10.542;2023-07-29T12:59:12;3.83;;;3.40;;
73474;SDS011;61711;52.266;10.542;2023-07-29T13:01:38;3.35;;;3.00;;
73474;SDS011;61711;52.266;10.542;2023-07-29T13:04:04;4.28;;;2.83;;
73474;SDS011;61711;52.266;10.542;2023-07-29T13:06:30;3.05;;;2.85;;
73474;SDS011;61711;52.266;10.542;2023-07-29T13:08:56;2.50;;;2.30;;
73474;SDS011;61711;52.266;10.542;2023-07-29T13:11:22;2.70;;;2.47;;
73474;SDS011;61711;52.266;10.542;2023-07-29T13:13:49;2.60;;;2.40;;
73474;SDS011;61711;52.266;10.542;2023-07-29T13:16:15;2.58;;;2.38;;
73474;SDS011;61711;52.266;10.542;2023-07-29T13:18:41;3.85;;;2.50;;
73474;SDS011;61711;52.266;10.542;2023-07-29T13:21:08;2.63;;;2.20;;
73474;SDS011;61711;52.266;10.542;2023-07-29T13:23:34;4.38;;;2.22;;
73474;SDS011;61711;52.266;10.542;2023-07-29T13:26:00;2.08;;;1.90;;
73474;SDS011;61711;52.266;10.542;2023-07-29T13:28:26;2.00;;;1.80;;
73474;SDS011;61711;52.266;10.542;2023-07-29T13:30:53;1.65;;;1.52;;
73474;SDS011;61711;52.266;10.542;2023-07-29T13:33:19;2.28;;;1.85;;
73474;SDS011;61711;52.266;10.542;2023-07-29T13:35:45;1.77;;;1.67;;
73474;SDS011;61711;52.266;10.542;2023-07-29T13:38:11;1.85;;;1.65;;
73474;SDS011;61711;52.266;10.542;2023-07-29T13:40:37;1.83;;;1.53;;
73474;SDS011;61711;52.266;10.542;2023-07-29T13:43:03;2.80;;;2.10;;
73474;SDS011;61711;52.266;10.542;2023-07-29T13:45:28;2.88;;;2.58;;
73474;SDS011;61711;52.266;10.542;2023-07-29T13:47:54;1.33;;;1.20;;
73474;SDS011;61711;52.266;10.542;2023-07-29T13:50:20;2.40;;;1.52;;
73474;SDS011;61711;52.266;10.542;2023-07-29T13:52:47;4.57;;;1.60;;
73474;SDS011;61711;52.266;10.542;2023-07-29T13:55:13;2.03;;;1.50;;
73474;SDS011;61711;52.266;10.542;2023-07-29T13:57:39;1.50;;;1.25;;
73474;SDS011;61711;52.266;10.542;2023-07-29T14:00:06;2.05;;;1.40;;
73474;SDS011;61711;52.266;10.542;2023-07-29T14:02:33;1.60;;;1.38;;
73474;SDS011;61711;52.266;10.542;2023-07-29T14:04:59;2.22;;;1.50;;
73474;SDS011;61711;52.266;10.542;2023-07-29T14:07:25;2.97;;;1.77;;
73474;SDS011;61711;52.266;10.542;2023-07-29T14:09:51;2.30;;;1.50;;
73474;SDS011;61711;52.266;10.542;2023-07-29T14:12:17;10.63;;;7.72;;
73474;SDS011;61711;52.266;10.542;2023-07-29T14:14:43;3.67;;;2.63;;
73474;SDS011;61711;52.266;10.542;2023-07-29T14:17:09;7.03;;;5.40;;
73474;SDS011;61711;52.266;10.542;2023-07-29T14:19:35;1.73;;;1.30;;
73474;SDS011;61711;52.266;10.542;2023-07-29T14:22:01;1.30;;;1.20;;
73474;SDS011;61711;52.266;10.542;2023-07-29T14:24:27;1.20;;;1.10;;
73474;SDS011;61711;52.266;10.542;2023-07-29T14:26:53;1.20;;;1.10;;
73474;SDS011;61711;52.266;10.542;2023-07-29T14:29:19;2.90;;;1.17;;
73474;SDS011;61711;52.266;10.542;2023-07-29T14:31:45;1.90;;;1.10;;
73474;SDS011;61711;52.266;10.542;2023-07-29T14:34:11;1.30;;;1.20;;
73474;SDS011;61711;52.266;10.542;2023-07-29T14:36:37;1.77;;;1.30;;
73474;SDS011;61711;52.266;10.542;2023-07-29T14:39:03;1.35;;;1.25;;
73474;SDS011;61711;52.266;10.542;2023-07-29T14:41:30;3.75;;;1.60;;
73474;SDS011;61711;52.266;10.542;2023-07-29T14:43:56;1.40;;;1.30;;